createdAt,value
2022-12-03T00:00:05.048Z,9.279976
2022-12-03T00:01:03.025Z,9.279989
2022-12-03T00:02:01.999Z,9.279964
2022-12-03T00:03:02.172Z,9.279985
2022-12-03T00:04:02.165Z,9.280094
2022-12-03T00:05:01.937Z,9.280026
2022-12-03T00:06:01.919Z,9.280034
2022-12-03T00:07:01.904Z,9.280025
2022-12-03T00:08:01.927Z,9.280023
2022-12-03T00:09:01.858Z,9.280040
2022-12-03T00:10:01.834Z,9.280094
2022-12-03T00:11:02.820Z,9.280076
2022-12-03T00:12:01.798Z,9.279980
2022-12-03T00:13:01.807Z,9.280037
2022-12-03T00:14:01.758Z,9.280040
2022-12-03T00:15:01.739Z,9.279970
2022-12-03T00:16:01.762Z,9.279935
2022-12-03T00:17:01.698Z,9.279973
2022-12-03T00:18:01.704Z,9.279985
2022-12-03T00:19:01.657Z,9.279930
2022-12-03T00:20:01.641Z,9.279932
2022-12-03T00:21:01.621Z,9.279937
2022-12-03T00:22:01.598Z,9.279917
2022-12-03T00:23:01.606Z,9.280001
2022-12-03T00:24:01.559Z,9.279898
2022-12-03T00:25:01.540Z,9.280066
2022-12-03T00:26:01.523Z,9.280058
2022-12-03T00:27:01.505Z,9.280009
2022-12-03T00:28:01.504Z,9.280027
2022-12-03T00:29:01.459Z,9.280032
2022-12-03T00:30:02.441Z,9.279996
2022-12-03T00:31:01.482Z,9.279980
2022-12-03T00:32:01.404Z,9.280010
2022-12-03T00:33:01.407Z,9.280028
2022-12-03T00:34:01.361Z,9.280079
2022-12-03T00:35:01.339Z,9.280038
2022-12-03T00:36:01.343Z,9.280057
2022-12-03T00:37:01.301Z,9.280051
2022-12-03T00:38:01.281Z,9.280066
2022-12-03T00:39:01.258Z,9.279994
2022-12-03T00:40:01.239Z,9.280112
2022-12-03T00:41:01.245Z,9.280033
2022-12-03T00:42:01.199Z,9.280013
2022-12-03T00:43:01.179Z,9.280002
2022-12-03T00:44:01.190Z,9.279996
2022-12-03T00:45:01.138Z,9.280007
2022-12-03T00:46:01.194Z,9.280006
2022-12-03T00:47:01.175Z,9.279965
2022-12-03T00:48:01.080Z,9.279992
2022-12-03T00:49:01.083Z,9.280025
2022-12-03T00:50:01.040Z,9.280008
2022-12-03T00:51:01.021Z,9.279922
2022-12-03T00:52:00.997Z,9.279917
2022-12-03T00:53:00.982Z,9.279846
2022-12-03T00:54:00.989Z,9.279959
2022-12-03T00:55:00.937Z,9.280131
2022-12-03T00:56:00.915Z,9.279984
2022-12-03T00:57:00.904Z,9.279991
2022-12-03T00:58:00.876Z,9.280016
2022-12-03T00:59:00.889Z,9.280049
2022-12-03T01:00:00.834Z,9.279876
2022-12-03T01:01:00.842Z,9.279995
2022-12-03T01:02:00.891Z,9.280044
2022-12-03T01:03:00.773Z,9.279906
2022-12-03T01:04:00.780Z,9.279886
2022-12-03T01:05:00.813Z,9.279941
2022-12-03T01:06:00.717Z,9.280022
2022-12-03T01:07:00.697Z,9.280040
2022-12-03T01:08:00.732Z,9.280018
2022-12-03T01:09:00.678Z,9.280131
2022-12-03T01:10:00.634Z,9.280066
2022-12-03T01:11:00.611Z,9.280079
2022-12-03T01:12:00.592Z,9.280051
2022-12-03T01:13:00.570Z,9.279957
2022-12-03T01:14:00.581Z,9.279985
2022-12-03T01:15:00.536Z,9.279987
2022-12-03T01:16:00.559Z,9.279977
2022-12-03T01:17:00.490Z,9.280031
2022-12-03T01:18:00.475Z,9.280108
2022-12-03T01:19:00.476Z,9.280129
2022-12-03T01:20:00.436Z,9.280044
2022-12-03T01:21:00.413Z,9.280049
2022-12-03T01:22:00.391Z,9.279989
2022-12-03T01:23:00.372Z,9.279938
2022-12-03T01:24:00.392Z,9.279897
2022-12-03T01:25:00.332Z,9.279965
2022-12-03T01:26:00.313Z,9.280069
2022-12-03T01:27:00.290Z,9.279949
2022-12-03T01:28:00.270Z,9.279969
2022-12-03T01:29:00.275Z,9.280010
2022-12-03T01:30:00.226Z,9.280104
2022-12-03T01:31:00.231Z,9.280062
2022-12-03T01:32:00.187Z,9.279993
2022-12-03T01:33:00.170Z,9.279996
2022-12-03T01:34:00.172Z,9.280139
2022-12-03T01:35:00.130Z,9.280000
2022-12-03T01:36:00.109Z,9.280006
2022-12-03T01:37:00.088Z,9.279893
2022-12-03T01:38:00.099Z,9.279873
2022-12-03T01:39:00.082Z,9.279958
2022-12-03T01:40:00.030Z,9.279998
2022-12-03T01:41:00.031Z,9.280092
2022-12-03T01:41:59.987Z,9.279986
2022-12-03T01:42:59.968Z,9.279953
2022-12-03T01:44:00.027Z,9.279960
2022-12-03T01:44:59.930Z,9.280145
2022-12-03T01:45:59.909Z,9.279963
2022-12-03T01:46:59.978Z,9.279814
2022-12-03T01:47:59.867Z,9.279779
2022-12-03T01:48:59.934Z,9.279816
2022-12-03T01:49:59.824Z,9.279904
2022-12-03T01:50:59.799Z,9.279953
2022-12-03T01:51:59.782Z,9.279998
2022-12-03T01:52:59.761Z,9.280042
2022-12-03T01:53:59.773Z,9.280009
2022-12-03T01:54:59.719Z,9.280048
2022-12-03T01:55:59.704Z,9.279975
2022-12-03T01:56:59.682Z,9.279975
2022-12-03T01:57:59.661Z,9.279921
2022-12-03T01:58:59.669Z,9.279958
2022-12-03T01:59:59.621Z,9.279978
2022-12-03T02:00:59.598Z,9.280000
2022-12-03T02:01:59.679Z,9.279947
2022-12-03T02:02:59.560Z,9.280001
2022-12-03T02:03:59.633Z,9.279934
2022-12-03T02:04:59.533Z,9.280006
2022-12-03T02:05:59.499Z,9.280007
2022-12-03T02:06:59.481Z,9.279950
2022-12-03T02:07:59.643Z,9.279888
2022-12-03T02:08:59.469Z,9.279925
2022-12-03T02:09:59.412Z,9.279990
2022-12-03T02:10:59.398Z,9.279860
2022-12-03T02:11:59.377Z,9.279969
2022-12-03T02:12:59.360Z,9.279965
2022-12-03T02:13:59.366Z,9.279916
2022-12-03T02:14:59.317Z,9.279969
2022-12-03T02:15:59.358Z,9.279877
2022-12-03T02:16:59.276Z,9.279819
2022-12-03T02:17:59.259Z,9.279942
2022-12-03T02:18:59.269Z,9.279772
2022-12-03T02:19:59.221Z,9.279820
2022-12-03T02:20:59.200Z,9.279922
2022-12-03T02:21:59.175Z,9.279950
2022-12-03T02:22:59.157Z,9.279914
2022-12-03T02:23:59.167Z,9.279956
2022-12-03T02:24:59.129Z,9.279864
2022-12-03T02:25:59.104Z,9.279928
2022-12-03T02:26:59.092Z,9.279970
2022-12-03T02:27:59.059Z,9.279907
2022-12-03T02:28:59.065Z,9.279843
2022-12-03T02:29:59.020Z,9.280003
2022-12-03T02:30:59.066Z,9.279902
2022-12-03T02:31:59.069Z,9.279921
2022-12-03T02:32:58.963Z,9.279877
2022-12-03T02:33:58.967Z,9.279962
2022-12-03T02:34:58.917Z,9.279955
2022-12-03T02:36:03.312Z,9.279914
2022-12-03T02:37:00.872Z,9.279883
2022-12-03T02:37:58.861Z,9.279898
2022-12-03T02:38:58.872Z,9.279984
2022-12-03T02:39:58.816Z,9.279986
2022-12-03T02:40:58.821Z,9.279902
2022-12-03T02:41:58.784Z,9.279937
2022-12-03T02:42:58.757Z,9.279899
2022-12-03T02:43:58.763Z,9.279884
2022-12-03T02:45:04.670Z,9.279890
2022-12-03T02:46:00.699Z,9.279820
2022-12-03T02:46:58.749Z,9.279868
2022-12-03T02:47:58.660Z,9.279902
2022-12-03T02:48:58.661Z,9.279910
2022-12-03T02:49:58.616Z,9.279969
2022-12-03T02:50:58.594Z,9.279884
2022-12-03T02:51:58.577Z,9.279983
2022-12-03T02:52:58.559Z,9.279958
2022-12-03T02:53:58.567Z,9.279889
2022-12-03T02:54:58.513Z,9.279828
2022-12-03T02:55:58.494Z,9.279860
2022-12-03T02:56:58.469Z,9.279840
2022-12-03T02:57:58.449Z,9.279859
2022-12-03T02:58:58.459Z,9.279831
2022-12-03T02:59:58.401Z,9.279842
2022-12-03T03:00:59.487Z,9.279899
2022-12-03T03:01:58.491Z,9.279892
2022-12-03T03:02:58.349Z,9.279937
2022-12-03T03:03:58.357Z,9.279961
2022-12-03T03:04:58.310Z,9.279906
2022-12-03T03:05:58.283Z,9.279884
2022-12-03T03:06:58.265Z,9.279856
2022-12-03T03:07:58.404Z,9.279867
2022-12-03T03:08:58.253Z,9.279920
2022-12-03T03:09:58.208Z,9.279917
2022-12-03T03:10:58.183Z,9.279860
2022-12-03T03:11:58.190Z,9.279953
2022-12-03T03:12:58.144Z,9.279794
2022-12-03T03:13:58.125Z,9.279859
2022-12-03T03:14:58.104Z,9.279944
2022-12-03T03:15:58.136Z,9.280028
2022-12-03T03:16:58.122Z,9.279985
2022-12-03T03:17:58.044Z,9.279888
2022-12-03T03:18:58.048Z,9.279845
2022-12-03T03:19:58.003Z,9.279901
2022-12-03T03:20:57.982Z,9.279914
2022-12-03T03:21:57.966Z,9.279901
2022-12-03T03:22:57.943Z,9.279909
2022-12-03T03:23:57.953Z,9.279833
2022-12-03T03:24:57.900Z,9.279828
2022-12-03T03:25:57.883Z,9.279729
2022-12-03T03:26:57.862Z,9.279951
2022-12-03T03:27:57.839Z,9.279857
2022-12-03T03:28:57.845Z,9.279750
2022-12-03T03:29:57.797Z,9.279738
2022-12-03T03:30:57.776Z,9.279868
2022-12-03T03:31:57.833Z,9.279885
2022-12-03T03:32:57.742Z,9.279881
2022-12-03T03:33:57.742Z,9.279797
2022-12-03T03:34:57.693Z,9.279841
2022-12-03T03:35:57.668Z,9.279868
2022-12-03T03:36:57.650Z,9.279657
2022-12-03T03:37:57.637Z,9.279686
2022-12-03T03:38:57.631Z,9.279840
2022-12-03T03:39:57.589Z,9.279949
2022-12-03T03:40:57.572Z,9.279910
2022-12-03T03:41:57.553Z,9.280032
2022-12-03T03:42:57.530Z,9.279988
2022-12-03T03:43:57.536Z,9.279976
2022-12-03T03:44:57.492Z,9.279865
2022-12-03T03:45:57.568Z,9.279799
2022-12-03T03:46:57.450Z,9.279857
2022-12-03T03:47:57.437Z,9.279881
2022-12-03T03:48:57.438Z,9.279825
2022-12-03T03:49:57.391Z,9.279881
2022-12-03T03:50:57.370Z,9.279942
2022-12-03T03:51:57.376Z,9.279933
2022-12-03T03:52:57.330Z,9.279851
2022-12-03T03:53:57.347Z,9.279824
2022-12-03T03:54:57.288Z,9.279883
2022-12-03T03:55:57.265Z,9.279899
2022-12-03T03:56:58.246Z,9.279829
2022-12-03T03:57:57.228Z,9.279866
2022-12-03T03:58:57.234Z,9.279908
2022-12-03T03:59:57.187Z,9.279932
2022-12-03T04:00:57.218Z,9.279906
2022-12-03T04:01:57.150Z,9.279861
2022-12-03T04:02:57.134Z,9.279924
2022-12-03T04:03:57.215Z,9.279984
2022-12-03T04:04:57.092Z,9.280046
2022-12-03T04:05:57.073Z,9.280031
2022-12-03T04:06:57.055Z,9.279945
2022-12-03T04:07:57.154Z,9.279890
2022-12-03T04:08:57.045Z,9.279901
2022-12-03T04:09:56.991Z,9.279982
2022-12-03T04:10:56.977Z,9.279930
2022-12-03T04:11:56.961Z,9.279871
2022-12-03T04:12:56.938Z,9.279861
2022-12-03T04:13:56.923Z,9.279855
2022-12-03T04:14:56.925Z,9.279906
2022-12-03T04:15:56.879Z,9.279887
2022-12-03T04:16:56.934Z,9.279830
2022-12-03T04:17:56.838Z,9.279975
2022-12-03T04:18:56.839Z,9.279911
2022-12-03T04:19:56.828Z,9.279862
2022-12-03T04:20:56.782Z,9.279818
2022-12-03T04:21:56.769Z,9.279805
2022-12-03T04:22:56.742Z,9.279901
2022-12-03T04:23:56.724Z,9.279858
2022-12-03T04:24:56.737Z,9.279948
2022-12-03T04:25:56.682Z,9.280030
2022-12-03T04:26:56.662Z,9.279952
2022-12-03T04:27:56.646Z,9.280016
2022-12-03T04:28:56.622Z,9.279958
2022-12-03T04:29:56.632Z,9.279902
2022-12-03T04:30:56.633Z,9.279883
2022-12-03T04:31:56.563Z,9.280028
2022-12-03T04:32:56.587Z,9.280000
2022-12-03T04:33:56.520Z,9.280052
2022-12-03T04:34:56.894Z,9.280027
2022-12-03T04:35:56.517Z,9.279998
2022-12-03T04:36:56.461Z,9.279969
2022-12-03T04:37:56.463Z,9.279922
2022-12-03T04:38:56.419Z,9.279886
2022-12-03T04:39:56.425Z,9.279851
2022-12-03T04:40:56.377Z,9.279915
2022-12-03T04:41:56.356Z,9.279989
2022-12-03T04:42:56.335Z,9.280035
2022-12-03T04:43:56.318Z,9.279980
2022-12-03T04:44:56.542Z,9.279875
2022-12-03T04:45:56.331Z,9.279922
2022-12-03T04:46:56.265Z,9.279903
2022-12-03T04:47:56.241Z,9.279855
2022-12-03T04:48:56.222Z,9.279881
2022-12-03T04:49:56.230Z,9.279866
2022-12-03T04:50:56.177Z,9.279851
2022-12-03T04:51:56.153Z,9.279892
2022-12-03T04:52:56.165Z,9.279916
2022-12-03T04:53:56.119Z,9.279923
2022-12-03T04:54:56.510Z,9.279892
2022-12-03T04:55:56.076Z,9.279956
2022-12-03T04:56:56.058Z,9.279844
2022-12-03T04:57:56.034Z,9.279836
2022-12-03T04:58:56.020Z,9.279890
2022-12-03T04:59:56.028Z,9.279934
2022-12-03T05:00:56.019Z,9.279922
2022-12-03T05:01:56.026Z,9.279908
2022-12-03T05:02:55.989Z,9.279918
2022-12-03T05:03:55.925Z,9.279893
2022-12-03T05:04:56.228Z,9.279922
2022-12-03T05:05:55.870Z,9.279929
2022-12-03T05:06:55.849Z,9.279934
2022-12-03T05:07:55.878Z,9.279963
2022-12-03T05:08:55.816Z,9.280002
2022-12-03T05:09:55.817Z,9.279966
2022-12-03T05:10:55.770Z,9.279927
2022-12-03T05:11:55.751Z,9.279924
2022-12-03T05:12:55.731Z,9.279937
2022-12-03T05:13:55.736Z,9.279865
2022-12-03T05:14:56.134Z,9.279914
2022-12-03T05:15:55.675Z,9.279886
2022-12-03T05:16:55.705Z,9.279821
2022-12-03T05:17:55.637Z,9.279910
2022-12-03T05:18:55.613Z,9.279882
2022-12-03T05:19:55.624Z,9.279882
2022-12-03T05:20:55.571Z,9.279881
2022-12-03T05:21:55.548Z,9.279960
2022-12-03T05:22:55.533Z,9.279925
2022-12-03T05:23:55.512Z,9.279836
2022-12-03T05:24:55.897Z,9.279832
2022-12-03T05:25:55.469Z,9.279839
2022-12-03T05:26:55.451Z,9.279821
2022-12-03T05:27:55.427Z,9.279799
2022-12-03T05:28:55.403Z,9.279863
2022-12-03T05:29:55.415Z,9.279832
2022-12-03T05:30:55.389Z,9.279894
2022-12-03T05:31:56.344Z,9.279896
2022-12-03T05:32:55.321Z,9.279918
2022-12-03T05:33:55.326Z,9.279884
2022-12-03T05:34:55.646Z,9.279928
2022-12-03T05:35:55.259Z,9.279872
2022-12-03T05:36:55.242Z,9.280048
2022-12-03T05:37:55.223Z,9.279892
2022-12-03T05:38:55.198Z,9.279809
2022-12-03T05:39:55.205Z,9.279808
2022-12-03T05:40:55.158Z,9.279849
2022-12-03T05:41:55.138Z,9.279835
2022-12-03T05:42:55.116Z,9.279925
2022-12-03T05:43:55.096Z,9.279845
2022-12-03T05:44:55.457Z,9.279910
2022-12-03T05:45:55.125Z,9.279928
2022-12-03T05:46:55.028Z,9.279903
2022-12-03T05:47:55.013Z,9.279925
2022-12-03T05:48:54.991Z,9.279745
2022-12-03T05:49:54.992Z,9.279858
2022-12-03T05:50:54.952Z,9.279995
2022-12-03T05:51:58.484Z,9.279883
2022-12-03T05:52:55.912Z,9.279882
2022-12-03T05:53:54.911Z,9.279881
2022-12-03T05:54:55.139Z,9.279841
2022-12-03T05:55:54.843Z,9.279898
2022-12-03T05:56:54.822Z,9.279663
2022-12-03T05:57:54.799Z,9.279867
2022-12-03T05:58:54.774Z,9.279930
2022-12-03T05:59:54.783Z,9.279873
2022-12-03T06:00:54.748Z,9.279881
2022-12-03T06:01:54.713Z,9.279844
2022-12-03T06:02:54.791Z,9.279834
2022-12-03T06:03:54.757Z,9.279718
2022-12-03T06:04:54.910Z,9.279917
2022-12-03T06:05:54.629Z,9.279903
2022-12-03T06:06:54.612Z,9.279935
2022-12-03T06:07:54.626Z,9.279925
2022-12-03T06:08:54.570Z,9.279855
2022-12-03T06:09:54.587Z,9.279958
2022-12-03T06:10:54.528Z,9.279831
2022-12-03T06:11:54.506Z,9.279652
2022-12-03T06:12:54.493Z,9.279709
2022-12-03T06:13:54.498Z,9.279863
2022-12-03T06:14:54.685Z,9.279782
2022-12-03T06:15:54.483Z,9.279821
2022-12-03T06:16:54.418Z,9.279930
2022-12-03T06:17:54.392Z,9.279875
2022-12-03T06:18:54.379Z,9.279949
2022-12-03T06:19:54.349Z,9.279908
2022-12-03T06:20:54.510Z,9.279925
2022-12-03T06:21:54.321Z,9.279948
2022-12-03T06:22:54.289Z,9.280136
2022-12-03T06:23:54.271Z,9.280123
2022-12-03T06:24:54.487Z,9.280084
2022-12-03T06:25:54.256Z,9.279891
2022-12-03T06:26:54.210Z,9.279946
2022-12-03T06:27:54.188Z,9.279995
2022-12-03T06:28:54.163Z,9.279822
2022-12-03T06:29:54.146Z,9.279791
2022-12-03T06:30:54.204Z,9.279726
2022-12-03T06:31:54.109Z,9.279622
2022-12-03T06:32:54.088Z,9.279811
2022-12-03T06:33:54.066Z,9.279898
2022-12-03T06:34:54.288Z,9.279844
2022-12-03T06:35:54.050Z,9.279729
2022-12-03T06:36:54.002Z,9.279934
2022-12-03T06:37:53.981Z,9.279993
2022-12-03T06:38:53.963Z,9.280058
2022-12-03T06:39:53.933Z,9.280081
2022-12-03T06:40:53.940Z,9.280011
2022-12-03T06:41:53.895Z,9.279960
2022-12-03T06:42:53.888Z,9.279798
2022-12-03T06:43:53.852Z,9.279917
2022-12-03T06:44:54.137Z,9.279925
2022-12-03T06:45:53.848Z,9.280019
2022-12-03T06:46:53.835Z,9.280054
2022-12-03T06:47:53.773Z,9.279892
2022-12-03T06:48:53.757Z,9.279959
2022-12-03T06:49:53.745Z,9.279982
2022-12-03T06:50:53.738Z,9.280000
2022-12-03T06:51:53.696Z,9.280005
2022-12-03T06:52:53.674Z,9.279955
2022-12-03T06:53:53.658Z,9.279986
2022-12-03T06:54:53.944Z,9.279926
2022-12-03T06:55:53.635Z,9.279998
2022-12-03T06:56:53.594Z,9.280064
2022-12-03T06:57:53.575Z,9.280096
2022-12-03T06:58:53.551Z,9.280141
2022-12-03T06:59:53.805Z,9.280189
2022-12-03T07:00:53.536Z,9.279795
2022-12-03T07:01:53.579Z,9.279884
2022-12-03T07:02:53.574Z,9.279917
2022-12-03T07:03:53.449Z,9.280079
2022-12-03T07:04:54.776Z,9.280108
2022-12-03T07:05:53.436Z,9.279986
2022-12-03T07:06:53.390Z,9.279876
2022-12-03T07:07:53.431Z,9.280100
2022-12-03T07:08:53.347Z,9.280145
2022-12-03T07:09:53.329Z,9.279922
2022-12-03T07:10:53.335Z,9.280025
2022-12-03T07:11:53.281Z,9.279973
2022-12-03T07:12:53.268Z,9.279943
2022-12-03T07:13:53.243Z,9.279914
2022-12-03T07:14:53.710Z,9.279925
2022-12-03T07:15:53.267Z,9.280088
2022-12-03T07:16:53.179Z,9.280154
2022-12-03T07:17:53.160Z,9.280168
2022-12-03T07:18:53.142Z,9.280086
2022-12-03T07:19:53.125Z,9.280036
2022-12-03T07:20:53.125Z,9.280029
2022-12-03T07:21:53.074Z,9.280090
2022-12-03T07:22:53.057Z,9.280157
2022-12-03T07:23:53.869Z,9.280085
2022-12-03T07:24:53.371Z,9.279955
2022-12-03T07:25:53.015Z,9.280006
2022-12-03T07:26:52.980Z,9.279893
2022-12-03T07:27:52.955Z,9.280037
2022-12-03T07:28:52.929Z,9.280024
2022-12-03T07:29:52.912Z,9.280036
2022-12-03T07:30:52.971Z,9.280030
2022-12-03T07:31:52.968Z,9.280149
2022-12-03T07:32:52.884Z,9.279949
2022-12-03T07:33:52.849Z,9.280012
2022-12-03T07:34:53.151Z,9.280011
2022-12-03T07:35:52.805Z,9.279999
2022-12-03T07:36:52.754Z,9.280008
2022-12-03T07:37:52.735Z,9.280067
2022-12-03T07:38:52.720Z,9.280070
2022-12-03T07:39:52.695Z,9.279988
2022-12-03T07:40:52.705Z,9.279990
2022-12-03T07:41:52.650Z,9.280046
2022-12-03T07:42:52.635Z,9.280010
2022-12-03T07:43:52.609Z,9.279951
2022-12-03T07:44:52.913Z,9.279877
2022-12-03T07:45:52.591Z,9.279840
2022-12-03T07:46:52.571Z,9.279922
2022-12-03T07:47:52.532Z,9.279950
2022-12-03T07:48:52.504Z,9.279907
2022-12-03T07:49:53.480Z,9.279956
2022-12-03T07:50:52.493Z,9.279927
2022-12-03T07:51:52.444Z,9.279905
2022-12-03T07:52:52.422Z,9.279937
2022-12-03T07:53:52.401Z,9.279946
2022-12-03T07:54:52.758Z,9.279869
2022-12-03T07:55:52.403Z,9.279931
2022-12-03T07:56:55.530Z,9.279819
2022-12-03T07:57:53.316Z,9.279880
2022-12-03T07:58:52.309Z,9.279916
2022-12-03T07:59:52.296Z,9.279911
2022-12-03T08:00:52.311Z,9.279956
2022-12-03T08:01:52.299Z,9.279916
2022-12-03T08:02:52.253Z,9.279902
2022-12-03T08:03:52.198Z,9.279925
2022-12-03T08:04:52.686Z,9.279860
2022-12-03T08:05:52.187Z,9.279837
2022-12-03T08:06:52.133Z,9.279943
2022-12-03T08:07:52.174Z,9.279860
2022-12-03T08:08:52.098Z,9.279871
2022-12-03T08:09:52.975Z,9.279804
2022-12-03T08:10:52.079Z,9.279876
2022-12-03T08:11:52.030Z,9.279940
2022-12-03T08:12:52.013Z,9.279931
2022-12-03T08:13:51.992Z,9.279921
2022-12-03T08:14:52.444Z,9.279966
2022-12-03T08:15:51.952Z,9.279902
2022-12-03T08:16:51.963Z,9.279902
2022-12-03T08:17:51.912Z,9.279910
2022-12-03T08:18:51.888Z,9.279962
2022-12-03T08:19:51.895Z,9.279853
2022-12-03T08:20:51.878Z,9.279804
2022-12-03T08:21:56.489Z,9.279817
2022-12-03T08:22:52.809Z,9.279799
2022-12-03T08:23:51.787Z,9.279859
2022-12-03T08:24:52.055Z,9.279876
2022-12-03T08:25:51.764Z,9.279934
2022-12-03T08:26:51.724Z,9.279869
2022-12-03T08:27:51.702Z,9.279853
2022-12-03T08:28:51.677Z,9.279824
2022-12-03T08:29:51.649Z,9.279831
2022-12-03T08:30:51.662Z,9.279848
2022-12-03T08:31:51.670Z,9.279841
2022-12-03T08:32:51.591Z,9.279852
2022-12-03T08:33:51.571Z,9.279848
2022-12-03T08:34:51.775Z,9.279826
2022-12-03T08:35:51.534Z,9.279870
2022-12-03T08:36:52.355Z,9.279812
2022-12-03T08:37:51.488Z,9.279851
2022-12-03T08:38:51.465Z,9.279837
2022-12-03T08:39:51.471Z,9.279714
2022-12-03T08:40:51.450Z,9.279873
2022-12-03T08:41:51.405Z,9.279789
2022-12-03T08:42:51.382Z,9.279819
2022-12-03T08:43:51.364Z,9.279866
2022-12-03T08:44:51.608Z,9.279901
2022-12-03T08:45:51.391Z,9.280020
2022-12-03T08:46:51.303Z,9.279915
2022-12-03T08:47:51.282Z,9.279848
2022-12-03T08:48:51.263Z,9.279824
2022-12-03T08:49:51.270Z,9.279871
2022-12-03T08:50:51.261Z,9.279862
2022-12-03T08:51:51.215Z,9.279882
2022-12-03T08:52:51.188Z,9.279848
2022-12-03T08:53:52.565Z,9.279871
2022-12-03T08:54:51.384Z,9.279870
2022-12-03T08:55:51.147Z,9.279930
2022-12-03T08:56:51.101Z,9.279920
2022-12-03T08:57:51.080Z,9.279920
2022-12-03T08:58:51.067Z,9.279864
2022-12-03T08:59:51.041Z,9.279827
2022-12-03T09:00:51.075Z,9.279816
2022-12-03T09:01:51.083Z,9.279915
2022-12-03T09:02:50.975Z,9.279883
2022-12-03T09:03:51.055Z,9.279829
2022-12-03T09:04:51.095Z,9.279865
2022-12-03T09:05:50.952Z,9.279877
2022-12-03T09:06:50.896Z,9.279903
2022-12-03T09:07:50.909Z,9.279914
2022-12-03T09:08:50.854Z,9.279786
2022-12-03T09:09:50.855Z,9.279699
2022-12-03T09:10:50.839Z,9.279721
2022-12-03T09:11:50.905Z,9.279830
2022-12-03T09:12:50.778Z,9.279806
2022-12-03T09:13:50.758Z,9.279883
2022-12-03T09:14:50.885Z,9.279862
2022-12-03T09:15:50.742Z,9.279892
2022-12-03T09:16:50.765Z,9.279875
2022-12-03T09:17:50.682Z,9.279928
2022-12-03T09:18:50.660Z,9.279901
2022-12-03T09:19:50.675Z,9.279867
2022-12-03T09:20:50.645Z,9.279778
2022-12-03T09:21:50.623Z,9.279701
2022-12-03T09:22:50.577Z,9.279788
2022-12-03T09:23:50.555Z,9.279763
2022-12-03T09:24:50.667Z,9.279801
2022-12-03T09:25:50.546Z,9.279743
2022-12-03T09:26:50.501Z,9.279808
2022-12-03T09:27:50.485Z,9.279928
2022-12-03T09:28:50.454Z,9.279930
2022-12-03T09:29:50.443Z,9.279875
2022-12-03T09:30:50.441Z,9.279844
2022-12-03T09:31:50.497Z,9.279778
2022-12-03T09:32:50.373Z,9.279748
2022-12-03T09:33:50.374Z,9.279715
2022-12-03T09:34:50.325Z,9.279700
2022-12-03T09:35:50.332Z,9.279740
2022-12-03T09:36:50.290Z,9.279647
2022-12-03T09:37:50.271Z,9.279854
2022-12-03T09:38:50.246Z,9.279884
2022-12-03T09:39:50.842Z,9.279884
2022-12-03T09:40:50.252Z,9.279888
2022-12-03T09:41:50.229Z,9.279931
2022-12-03T09:42:50.165Z,9.279913
2022-12-03T09:44:03.736Z,9.279952
2022-12-03T09:44:52.385Z,9.279992
2022-12-03T09:45:50.190Z,9.279858
2022-12-03T09:46:50.088Z,9.279833
2022-12-03T09:47:50.079Z,9.279915
2022-12-03T09:48:50.047Z,9.279887
2022-12-03T09:49:50.044Z,9.279987
2022-12-03T09:50:50.029Z,9.279895
2022-12-03T09:51:50.011Z,9.279864
2022-12-03T09:52:49.964Z,9.279952
2022-12-03T09:53:49.953Z,9.279964
2022-12-03T09:54:49.933Z,9.279927
2022-12-03T09:55:49.914Z,9.279876
2022-12-03T09:56:49.916Z,9.279954
2022-12-03T09:57:49.867Z,9.279968
2022-12-03T09:58:49.850Z,9.279928
2022-12-03T09:59:49.827Z,9.279902
2022-12-03T10:00:49.806Z,9.279848
2022-12-03T10:01:49.979Z,9.279960
2022-12-03T10:02:49.775Z,9.279955
2022-12-03T10:03:49.747Z,9.279985
2022-12-03T10:04:49.876Z,9.279950
2022-12-03T10:05:49.719Z,9.279923
2022-12-03T10:06:49.717Z,9.279913
2022-12-03T10:07:49.708Z,9.279905
2022-12-03T10:08:49.647Z,9.279838
2022-12-03T10:09:49.630Z,9.279940
2022-12-03T10:10:49.616Z,9.279942
2022-12-03T10:11:49.614Z,9.279916
2022-12-03T10:12:49.573Z,9.279954
2022-12-03T10:13:49.563Z,9.279941
2022-12-03T10:14:49.538Z,9.279933
2022-12-03T10:15:49.513Z,9.279988
2022-12-03T10:16:49.568Z,9.279985
2022-12-03T10:17:49.476Z,9.279965
2022-12-03T10:18:49.452Z,9.280017
2022-12-03T10:19:49.433Z,9.280033
2022-12-03T10:20:49.433Z,9.280119
2022-12-03T10:21:49.419Z,9.280030
2022-12-03T10:22:49.388Z,9.280090
2022-12-03T10:23:54.919Z,9.280056
2022-12-03T10:24:51.800Z,9.280003
2022-12-03T10:25:49.315Z,9.280059
2022-12-03T10:26:49.322Z,9.279966
2022-12-03T10:27:49.269Z,9.280041
2022-12-03T10:28:49.252Z,9.279983
2022-12-03T10:29:49.232Z,9.280057
2022-12-03T10:30:49.289Z,9.280028
2022-12-03T10:31:49.827Z,9.280057
2022-12-03T10:32:49.177Z,9.280047
2022-12-03T10:33:49.155Z,9.280157
2022-12-03T10:34:49.132Z,9.280035
2022-12-03T10:35:49.512Z,9.280029
2022-12-03T10:36:49.136Z,9.280005
2022-12-03T10:37:49.081Z,9.280085
2022-12-03T10:38:49.061Z,9.280049
2022-12-03T10:39:54.190Z,9.280149
2022-12-03T10:40:51.014Z,9.280149
2022-12-03T10:41:49.077Z,9.280064
2022-12-03T10:42:48.978Z,9.279924
2022-12-03T10:43:48.954Z,9.280073
2022-12-03T10:44:48.934Z,9.280220
2022-12-03T10:45:49.019Z,9.280140
2022-12-03T10:46:48.998Z,9.280078
2022-12-03T10:47:48.931Z,9.279911
2022-12-03T10:48:48.859Z,9.279998
2022-12-03T10:49:48.831Z,9.280107
2022-12-03T10:50:48.817Z,9.280139
2022-12-03T10:51:48.824Z,9.280047
2022-12-03T10:52:48.778Z,9.280104
2022-12-03T10:53:48.762Z,9.280127
2022-12-03T10:54:48.739Z,9.280120
2022-12-03T10:55:48.706Z,9.279969
2022-12-03T10:56:49.720Z,9.279927
2022-12-03T10:57:48.707Z,9.279806
2022-12-03T10:58:48.660Z,9.279944
2022-12-03T10:59:48.635Z,9.279954
2022-12-03T11:00:48.618Z,9.279925
2022-12-03T11:01:48.664Z,9.279986
2022-12-03T11:02:54.888Z,9.280024
2022-12-03T11:03:50.642Z,9.280159
2022-12-03T11:04:48.534Z,9.280134
2022-12-03T11:05:48.517Z,9.280102
2022-12-03T11:06:48.526Z,9.279975
2022-12-03T11:07:48.505Z,9.280066
2022-12-03T11:08:54.683Z,9.280061
2022-12-03T11:09:50.435Z,9.280055
2022-12-03T11:10:48.419Z,9.280046
2022-12-03T11:11:48.426Z,9.280072
2022-12-03T11:12:48.391Z,9.280062
2022-12-03T11:13:48.363Z,9.280056
2022-12-03T11:14:48.345Z,9.280132
2022-12-03T11:15:48.361Z,9.280037
2022-12-03T11:16:48.322Z,9.280017
2022-12-03T11:17:48.292Z,9.280000
2022-12-03T11:18:48.263Z,9.279996
2022-12-03T11:19:48.269Z,9.280004
2022-12-03T11:20:48.232Z,9.279982
2022-12-03T11:21:48.231Z,9.279969
2022-12-03T11:22:48.213Z,9.279988
2022-12-03T11:23:48.177Z,9.279881
2022-12-03T11:24:48.145Z,9.279982
2022-12-03T11:25:48.120Z,9.279967
2022-12-03T11:26:48.135Z,9.279930
2022-12-03T11:27:48.102Z,9.279927
2022-12-03T11:28:48.068Z,9.279980
2022-12-03T11:29:48.045Z,9.279980
2022-12-03T11:30:48.092Z,9.279992
2022-12-03T11:31:48.137Z,9.280181
2022-12-03T11:32:47.980Z,9.280047
2022-12-03T11:33:47.970Z,9.280046
2022-12-03T11:34:47.964Z,9.280140
2022-12-03T11:35:47.935Z,9.279973
2022-12-03T11:37:01.060Z,9.279967
2022-12-03T11:37:49.892Z,9.279948
2022-12-03T11:38:52.900Z,9.279935
2022-12-03T11:39:49.870Z,9.279984
2022-12-03T11:40:47.824Z,9.280053
2022-12-03T11:41:47.836Z,9.279992
2022-12-03T11:42:47.810Z,9.280035
2022-12-03T11:43:47.764Z,9.279990